createdAt,value
2018-10-06T00:00:30.863Z,20.74
2018-10-06T00:02:56.824Z,20.63
2018-10-06T00:05:22.761Z,20.70
2018-10-06T00:07:48.756Z,20.62
2018-10-06T00:10:14.685Z,20.75
2018-10-06T00:12:40.654Z,20.75
2018-10-06T00:15:06.640Z,20.79
2018-10-06T00:17:32.588Z,20.86
2018-10-06T00:19:58.540Z,20.79
2018-10-06T00:22:24.476Z,20.80
2018-10-06T00:24:50.437Z,20.78
2018-10-06T00:27:16.397Z,20.74
2018-10-06T00:29:42.344Z,20.64
2018-10-06T00:32:08.276Z,20.63
2018-10-06T00:34:34.250Z,20.60
2018-10-06T00:37:00.198Z,20.59
2018-10-06T00:39:26.155Z,20.55
2018-10-06T00:41:52.157Z,20.53
2018-10-06T00:44:18.109Z,20.48
2018-10-06T00:46:44.073Z,20.39
2018-10-06T00:49:10.033Z,20.35
2018-10-06T00:51:36.051Z,20.41
2018-10-06T00:54:02.014Z,20.38
2018-10-06T00:56:27.984Z,20.35
2018-10-06T00:58:53.937Z,20.31
2018-10-06T01:01:19.891Z,20.16
2018-10-06T01:03:45.876Z,20.29
2018-10-06T01:06:11.828Z,20.33
2018-10-06T01:08:37.753Z,20.28
2018-10-06T01:11:03.727Z,20.04
2018-10-06T01:13:29.732Z,20.11
2018-10-06T01:15:55.665Z,20.07
2018-10-06T01:18:21.589Z,20.16
2018-10-06T01:20:47.562Z,20.22
2018-10-06T01:23:13.516Z,20.04
2018-10-06T01:25:39.473Z,20.04
2018-10-06T01:28:05.425Z,20.04
2018-10-06T01:30:31.379Z,19.93
2018-10-06T01:32:57.340Z,20.00
2018-10-06T01:35:23.281Z,19.98
2018-10-06T01:37:49.212Z,19.96
2018-10-06T01:40:15.173Z,19.72
2018-10-06T01:42:41.145Z,19.75
2018-10-06T01:45:07.079Z,19.91
2018-10-06T01:47:33.076Z,19.97
2018-10-06T01:49:59.071Z,19.88
2018-10-06T01:52:25.034Z,19.91
2018-10-06T01:54:51.019Z,19.89
2018-10-06T01:57:16.987Z,19.86
2018-10-06T01:59:42.930Z,19.79
2018-10-06T02:02:08.885Z,19.76
2018-10-06T02:04:34.822Z,19.81
2018-10-06T02:07:00.773Z,19.85
2018-10-06T02:09:26.725Z,19.78
2018-10-06T02:11:52.696Z,19.81
2018-10-06T02:14:18.650Z,19.83
2018-10-06T02:16:44.605Z,19.75
2018-10-06T02:19:10.570Z,19.71
2018-10-06T02:21:36.517Z,19.69
2018-10-06T02:24:02.460Z,19.66
2018-10-06T02:26:28.420Z,19.66
2018-10-06T02:28:54.352Z,19.60
2018-10-06T02:31:20.290Z,19.54
2018-10-06T02:33:46.233Z,19.51
2018-10-06T02:36:12.195Z,19.47
2018-10-06T02:38:38.152Z,19.44
2018-10-06T02:41:04.137Z,19.38
2018-10-06T02:43:30.085Z,19.51
2018-10-06T02:45:56.024Z,19.63
2018-10-06T02:48:21.962Z,19.63
2018-10-06T02:50:47.898Z,19.57
2018-10-06T02:53:13.841Z,19.57
2018-10-06T02:55:39.773Z,19.47
2018-10-06T02:58:05.713Z,19.46
2018-10-06T03:00:31.664Z,19.45
2018-10-06T03:02:57.622Z,19.50
2018-10-06T03:05:23.550Z,19.55
2018-10-06T03:07:49.483Z,19.56
2018-10-06T03:10:15.452Z,19.52
2018-10-06T03:12:41.425Z,19.50
2018-10-06T03:15:07.357Z,19.38
2018-10-06T03:17:33.305Z,19.29
2018-10-06T03:19:59.240Z,19.23
2018-10-06T03:22:25.216Z,19.15
2018-10-06T03:24:51.176Z,19.06
2018-10-06T03:27:17.131Z,19.03
2018-10-06T03:29:43.116Z,18.98
2018-10-06T03:32:09.060Z,18.91
2018-10-06T03:34:35.028Z,18.83
2018-10-06T03:37:00.977Z,18.77
2018-10-06T03:39:26.911Z,18.74
2018-10-06T03:41:52.848Z,18.62
2018-10-06T03:44:18.825Z,18.53
2018-10-06T03:46:44.800Z,18.50
2018-10-06T03:49:10.792Z,18.39
2018-10-06T03:51:36.739Z,18.38
2018-10-06T03:54:02.792Z,18.33
2018-10-06T03:56:28.702Z,18.34
2018-10-06T03:58:54.658Z,18.34
2018-10-06T04:01:20.579Z,18.29
2018-10-06T04:03:46.552Z,18.30
2018-10-06T04:06:12.516Z,18.35
2018-10-06T04:08:38.493Z,18.28
2018-10-06T04:11:04.457Z,18.16
2018-10-06T04:13:30.404Z,18.00
2018-10-06T04:15:56.337Z,17.83
2018-10-06T04:18:22.300Z,17.72
2018-10-06T04:20:48.249Z,17.69
2018-10-06T04:23:14.207Z,17.61
2018-10-06T04:25:40.153Z,17.54
2018-10-06T04:28:06.139Z,17.52
2018-10-06T04:30:32.080Z,17.54
2018-10-06T04:32:58.030Z,17.57
2018-10-06T04:35:23.984Z,17.50
2018-10-06T04:37:49.939Z,17.47
2018-10-06T04:40:15.902Z,17.51
2018-10-06T04:42:41.854Z,17.40
2018-10-06T04:45:07.811Z,17.02
2018-10-06T04:47:33.814Z,17.23
2018-10-06T04:49:59.756Z,17.30
2018-10-06T04:52:25.683Z,17.35
2018-10-06T04:54:51.635Z,17.42
2018-10-06T04:57:17.570Z,17.54
2018-10-06T04:59:43.525Z,17.51
2018-10-06T05:02:09.481Z,17.58
2018-10-06T05:04:35.452Z,17.66
2018-10-06T05:07:01.417Z,17.79
2018-10-06T05:09:27.373Z,17.88
2018-10-06T05:11:53.340Z,17.93
2018-10-06T05:14:19.318Z,18.04
2018-10-06T05:16:45.314Z,18.12
2018-10-06T05:19:11.313Z,18.14
2018-10-06T05:21:37.268Z,18.27
2018-10-06T05:24:03.271Z,18.31
2018-10-06T05:26:29.225Z,18.40
2018-10-06T05:28:55.190Z,18.32
2018-10-06T05:31:21.126Z,18.35
2018-10-06T05:33:47.138Z,18.27
2018-10-06T05:36:13.055Z,18.24
2018-10-06T05:38:39.016Z,18.19
2018-10-06T05:41:04.959Z,18.14
2018-10-06T05:43:30.911Z,18.15
2018-10-06T05:45:56.839Z,18.19
2018-10-06T05:48:22.828Z,18.24
2018-10-06T05:50:48.836Z,18.37
2018-10-06T05:53:14.822Z,18.50
2018-10-06T05:55:40.759Z,18.61
2018-10-06T05:58:06.783Z,18.69
2018-10-06T06:00:32.731Z,18.75
2018-10-06T06:02:58.708Z,18.88
2018-10-06T06:05:24.648Z,18.98
2018-10-06T06:07:50.581Z,19.09
2018-10-06T06:10:16.569Z,19.19
2018-10-06T06:12:43.453Z,19.29
2018-10-06T06:15:09.389Z,19.41
2018-10-06T06:17:35.332Z,19.56
2018-10-06T06:20:01.320Z,19.68
2018-10-06T06:22:27.287Z,19.84
2018-10-06T06:24:53.243Z,19.99
2018-10-06T06:27:19.261Z,20.08
2018-10-06T06:29:45.232Z,20.25
2018-10-06T06:32:11.211Z,20.52
2018-10-06T06:34:37.160Z,20.55
2018-10-06T06:37:03.094Z,20.37
2018-10-06T06:39:29.049Z,20.57
2018-10-06T06:41:55.001Z,20.75
2018-10-06T06:44:21.122Z,20.83
2018-10-06T06:46:46.889Z,20.95
2018-10-06T06:49:12.820Z,21.05
2018-10-06T06:51:38.744Z,21.11
2018-10-06T06:54:04.695Z,21.08
2018-10-06T06:56:30.629Z,21.07
2018-10-06T06:58:56.562Z,20.80
2018-10-06T07:01:22.521Z,20.61
2018-10-06T07:03:48.456Z,20.41
2018-10-06T07:06:14.412Z,20.11
2018-10-06T07:08:40.360Z,19.87
2018-10-06T07:11:06.329Z,20.15
2018-10-06T07:13:32.301Z,20.18
2018-10-06T07:15:58.261Z,19.87
2018-10-06T07:18:24.270Z,19.78
2018-10-06T07:20:50.240Z,19.74
2018-10-06T07:23:16.196Z,19.92
2018-10-06T07:25:42.211Z,20.19
2018-10-06T07:28:08.134Z,20.75
2018-10-06T07:30:34.078Z,20.89
2018-10-06T07:33:00.013Z,20.66
2018-10-06T07:35:26.152Z,20.68
2018-10-06T07:37:52.263Z,20.82
2018-10-06T07:40:18.252Z,20.88
2018-10-06T07:42:44.250Z,20.72
2018-10-06T07:45:10.245Z,20.77
2018-10-06T07:47:36.239Z,20.27
2018-10-06T07:50:03.300Z,20.39
2018-10-06T07:52:29.281Z,20.72
2018-10-06T07:54:55.214Z,20.63
2018-10-06T07:57:21.196Z,20.88
2018-10-06T07:59:47.196Z,21.03
2018-10-06T08:02:13.218Z,21.12
2018-10-06T08:04:39.202Z,21.02
2018-10-06T08:07:05.153Z,20.97
2018-10-06T08:09:31.124Z,20.93
2018-10-06T08:11:57.082Z,20.94
2018-10-06T08:14:23.035Z,21.22
2018-10-06T08:16:49.153Z,21.37
2018-10-06T08:19:15.084Z,21.81
2018-10-06T08:21:41.038Z,21.84
2018-10-06T08:24:06.992Z,21.85
2018-10-06T08:26:32.926Z,22.14
2018-10-06T08:28:58.956Z,21.93
2018-10-06T08:31:24.889Z,21.91
2018-10-06T08:33:50.865Z,21.98
2018-10-06T08:36:16.844Z,22.19
2018-10-06T08:38:42.812Z,21.77
2018-10-06T08:41:08.779Z,21.76
2018-10-06T08:43:34.733Z,21.72
2018-10-06T08:46:00.694Z,21.76
2018-10-06T08:48:26.646Z,21.63
2018-10-06T08:50:52.633Z,21.62
2018-10-06T08:53:18.655Z,21.73
2018-10-06T08:55:44.711Z,22.05
2018-10-06T08:58:10.658Z,22.10
2018-10-06T09:00:36.613Z,22.19
2018-10-06T09:03:02.587Z,21.88
2018-10-06T09:05:28.537Z,21.99
2018-10-06T09:07:54.514Z,21.94
2018-10-06T09:10:20.475Z,22.39
2018-10-06T09:12:46.489Z,22.64
2018-10-06T09:15:12.426Z,22.68
2018-10-06T09:17:39.430Z,22.70
2018-10-06T09:20:05.431Z,22.95
2018-10-06T09:22:31.482Z,22.99
2018-10-06T09:24:57.471Z,23.10
2018-10-06T09:27:23.450Z,23.00
2018-10-06T09:29:49.460Z,22.95
2018-10-06T09:32:15.419Z,23.09
2018-10-06T09:34:41.355Z,22.91
2018-10-06T09:37:07.337Z,22.74
2018-10-06T09:39:33.397Z,22.52
2018-10-06T09:41:59.410Z,22.66
2018-10-06T09:44:25.402Z,22.78
2018-10-06T09:46:51.357Z,22.95
2018-10-06T09:49:17.313Z,22.86
2018-10-06T09:51:43.329Z,22.66
2018-10-06T09:54:09.404Z,22.92
2018-10-06T09:56:35.350Z,23.08
2018-10-06T09:59:01.308Z,23.02
2018-10-06T10:01:27.270Z,22.93
2018-10-06T10:03:53.261Z,22.99
2018-10-06T10:06:19.309Z,22.90
2018-10-06T10:08:45.378Z,22.90
2018-10-06T10:11:11.361Z,23.15
2018-10-06T10:13:37.312Z,23.24
2018-10-06T10:16:03.254Z,23.23
2018-10-06T10:18:29.371Z,23.22
2018-10-06T10:20:55.301Z,23.50
2018-10-06T10:23:21.289Z,23.49
2018-10-06T10:25:47.271Z,23.28
2018-10-06T10:28:13.272Z,23.33
2018-10-06T10:30:39.236Z,23.59
2018-10-06T10:33:05.186Z,23.58
2018-10-06T10:35:31.180Z,23.52
2018-10-06T10:37:57.163Z,23.57
2018-10-06T10:40:23.141Z,23.61
2018-10-06T10:42:49.113Z,23.50
2018-10-06T10:45:15.115Z,23.44
2018-10-06T10:47:41.104Z,23.49
2018-10-06T10:50:07.084Z,23.40
2018-10-06T10:52:33.048Z,23.27
2018-10-06T10:54:59.003Z,23.15
2018-10-06T10:57:24.944Z,23.08
2018-10-06T10:59:50.989Z,23.32
2018-10-06T11:02:16.905Z,23.54
2018-10-06T11:04:42.964Z,23.67
2018-10-06T11:07:08.862Z,23.42
2018-10-06T11:09:34.845Z,23.49
2018-10-06T11:12:00.801Z,23.53
2018-10-06T11:14:26.778Z,23.77
2018-10-06T11:16:52.704Z,23.72
2018-10-06T11:19:18.665Z,23.70
2018-10-06T11:21:44.623Z,23.82
2018-10-06T11:24:10.583Z,23.68
2018-10-06T11:26:36.563Z,23.90
2018-10-06T11:29:02.544Z,23.84
2018-10-06T11:31:28.482Z,24.19
2018-10-06T11:33:54.462Z,24.16
2018-10-06T11:36:20.441Z,24.10
2018-10-06T11:38:47.229Z,24.30
2018-10-06T11:41:13.174Z,24.28
2018-10-06T11:43:39.109Z,24.14
2018-10-06T11:46:05.076Z,24.16
2018-10-06T11:48:31.009Z,24.33
2018-10-06T11:50:56.961Z,24.16
2018-10-06T11:53:22.941Z,24.18
2018-10-06T11:55:48.881Z,24.19
2018-10-06T11:58:14.856Z,24.07
2018-10-06T12:00:40.875Z,24.42
2018-10-06T12:03:06.924Z,24.46
2018-10-06T12:05:32.960Z,24.37
2018-10-06T12:07:58.886Z,24.43
2018-10-06T12:10:24.857Z,24.66
2018-10-06T12:12:50.805Z,24.41
2018-10-06T12:15:16.757Z,24.22
2018-10-06T12:17:42.733Z,24.45
2018-10-06T12:20:08.720Z,24.85
2018-10-06T12:22:34.678Z,24.96
2018-10-06T12:25:00.661Z,25.08
2018-10-06T12:27:26.614Z,25.03
2018-10-06T12:29:52.578Z,25.00
2018-10-06T12:32:18.574Z,24.90
2018-10-06T12:34:44.656Z,24.87
2018-10-06T12:37:10.552Z,24.94
2018-10-06T12:39:36.549Z,25.24
2018-10-06T12:42:02.568Z,25.45
2018-10-06T12:44:28.515Z,25.20
2018-10-06T12:46:54.459Z,24.96
2018-10-06T12:49:20.412Z,24.75
2018-10-06T12:51:46.356Z,24.68
2018-10-06T12:54:12.336Z,24.85
2018-10-06T12:56:38.293Z,24.88
2018-10-06T12:59:04.228Z,24.93
2018-10-06T13:01:30.168Z,24.79
2018-10-06T13:03:56.128Z,25.13
2018-10-06T13:06:22.114Z,25.22
2018-10-06T13:08:48.049Z,25.00
2018-10-06T13:11:14.001Z,25.13
2018-10-06T13:13:39.985Z,25.24
2018-10-06T13:16:05.976Z,25.04
2018-10-06T13:18:31.939Z,25.03
2018-10-06T13:20:57.874Z,24.94
2018-10-06T13:23:23.856Z,24.98
2018-10-06T13:25:49.808Z,25.01
2018-10-06T13:28:15.774Z,24.68
2018-10-06T13:30:41.853Z,24.73
2018-10-06T13:33:08.872Z,24.87
2018-10-06T13:35:34.828Z,24.98
2018-10-06T13:38:00.787Z,24.96
2018-10-06T13:40:26.717Z,24.97
2018-10-06T13:42:52.725Z,24.58
2018-10-06T13:45:18.663Z,25.05
2018-10-06T13:47:44.745Z,24.92
2018-10-06T13:50:10.716Z,24.89
2018-10-06T13:52:36.708Z,24.84
2018-10-06T13:55:02.654Z,24.93
2018-10-06T13:57:28.610Z,24.97
2018-10-06T13:59:54.604Z,24.97
2018-10-06T14:02:20.619Z,25.14
2018-10-06T14:04:46.606Z,24.94
2018-10-06T14:07:12.629Z,24.86
2018-10-06T14:09:38.563Z,24.89
2018-10-06T14:12:04.551Z,24.63
2018-10-06T14:14:30.493Z,24.68
2018-10-06T14:16:56.459Z,24.83
2018-10-06T14:19:22.429Z,24.88
2018-10-06T14:21:48.393Z,24.99
2018-10-06T14:24:14.345Z,25.02
2018-10-06T14:26:40.282Z,24.85
2018-10-06T14:29:06.221Z,24.85
2018-10-06T14:31:32.167Z,25.07
2018-10-06T14:33:58.115Z,25.11
2018-10-06T14:36:24.078Z,24.99
2018-10-06T14:38:50.008Z,24.97
2018-10-06T14:41:15.998Z,25.09
2018-10-06T14:43:41.981Z,25.07
2018-10-06T14:46:07.922Z,25.16
2018-10-06T14:48:33.883Z,25.23
2018-10-06T14:50:59.820Z,25.30
2018-10-06T14:53:25.772Z,25.12
2018-10-06T14:55:51.751Z,24.98
2018-10-06T14:58:17.734Z,24.96
2018-10-06T15:00:43.690Z,25.04
2018-10-06T15:03:09.644Z,24.94
2018-10-06T15:05:35.601Z,24.78
2018-10-06T15:08:01.533Z,24.86
2018-10-06T15:10:27.535Z,24.65
2018-10-06T15:12:53.460Z,24.47
2018-10-06T15:15:19.428Z,24.47
2018-10-06T15:17:45.408Z,24.47
2018-10-06T15:20:11.374Z,24.53
2018-10-06T15:22:38.458Z,24.54
2018-10-06T15:25:04.389Z,24.49
2018-10-06T15:27:30.365Z,24.47
2018-10-06T15:29:56.322Z,24.52
2018-10-06T15:32:22.343Z,24.42
2018-10-06T15:34:48.287Z,24.26
2018-10-06T15:37:14.290Z,24.10
2018-10-06T15:39:40.225Z,24.23
2018-10-06T15:42:06.198Z,24.30
2018-10-06T15:44:32.148Z,24.25
2018-10-06T15:46:58.148Z,24.16
2018-10-06T15:49:24.096Z,24.14
2018-10-06T15:51:50.080Z,24.15
2018-10-06T15:54:16.009Z,23.70
2018-10-06T15:56:41.971Z,23.71
2018-10-06T15:59:07.906Z,23.72
2018-10-06T16:01:33.883Z,23.63
2018-10-06T16:03:59.853Z,23.64
2018-10-06T16:06:25.831Z,23.71
2018-10-06T16:08:51.883Z,23.75
2018-10-06T16:11:17.837Z,23.90
2018-10-06T16:13:43.810Z,23.90
2018-10-06T16:16:09.774Z,24.03
2018-10-06T16:18:35.717Z,24.02
2018-10-06T16:21:01.685Z,24.15
2018-10-06T16:23:27.640Z,23.89
2018-10-06T16:25:53.582Z,23.88
2018-10-06T16:28:19.544Z,23.95
2018-10-06T16:30:45.505Z,23.96
2018-10-06T16:33:11.457Z,24.12
2018-10-06T16:35:37.418Z,23.95
2018-10-06T16:38:03.440Z,23.91
2018-10-06T16:40:29.467Z,23.74
2018-10-06T16:42:55.409Z,23.71
2018-10-06T16:45:21.349Z,23.51
2018-10-06T16:47:47.275Z,23.67
2018-10-06T16:50:13.219Z,23.68
2018-10-06T16:52:39.277Z,23.52
2018-10-06T16:55:05.336Z,23.46
2018-10-06T16:57:31.319Z,23.38
2018-10-06T16:59:57.305Z,23.24
2018-10-06T17:02:23.261Z,23.21
2018-10-06T17:04:49.278Z,23.34
2018-10-06T17:07:15.221Z,23.29
2018-10-06T17:09:41.201Z,23.09
2018-10-06T17:12:07.174Z,23.07
2018-10-06T17:14:33.125Z,23.03
2018-10-06T17:16:59.099Z,23.00
2018-10-06T17:19:25.203Z,23.03
2018-10-06T17:21:51.191Z,23.07
2018-10-06T17:24:17.237Z,23.04
2018-10-06T17:26:43.116Z,22.93
2018-10-06T17:29:09.090Z,22.70
2018-10-06T17:31:35.125Z,22.68
2018-10-06T17:34:01.095Z,22.84
2018-10-06T17:36:27.036Z,23.01
2018-10-06T17:38:53.064Z,23.26
2018-10-06T17:41:18.996Z,23.41
2018-10-06T17:43:44.949Z,23.41
2018-10-06T17:46:10.909Z,23.51
2018-10-06T17:48:36.867Z,23.36
2018-10-06T17:51:02.820Z,23.38
2018-10-06T17:53:28.786Z,23.40
2018-10-06T17:55:54.786Z,23.35
2018-10-06T17:58:20.937Z,23.32
2018-10-06T18:00:46.889Z,23.19
2018-10-06T18:03:12.827Z,23.19
2018-10-06T18:05:38.884Z,23.28
2018-10-06T18:08:04.873Z,23.34
2018-10-06T18:10:30.836Z,23.29
2018-10-06T18:12:56.942Z,23.24
2018-10-06T18:15:22.914Z,23.26
2018-10-06T18:17:48.933Z,23.29
2018-10-06T18:20:14.907Z,23.19
2018-10-06T18:22:40.892Z,23.07
2018-10-06T18:25:06.866Z,22.93
2018-10-06T18:27:32.847Z,22.80
2018-10-06T18:29:58.810Z,22.72
2018-10-06T18:32:24.796Z,22.74
2018-10-06T18:34:50.757Z,22.69
2018-10-06T18:37:16.829Z,22.77
2018-10-06T18:39:42.815Z,22.77
2018-10-06T18:42:08.766Z,22.90
2018-10-06T18:44:34.742Z,23.07
2018-10-06T18:47:00.724Z,23.19
2018-10-06T18:49:26.803Z,23.26
2018-10-06T18:51:52.831Z,23.24
2018-10-06T18:54:18.917Z,23.15
2018-10-06T18:56:44.898Z,23.21
2018-10-06T18:59:10.869Z,22.96
2018-10-06T19:01:36.812Z,22.82
2018-10-06T19:04:02.874Z,22.68
2018-10-06T19:06:28.745Z,22.78
2018-10-06T19:08:54.718Z,22.61
2018-10-06T19:11:21.709Z,22.37
2018-10-06T19:13:47.662Z,22.43
2018-10-06T19:16:13.733Z,22.56
2018-10-06T19:18:39.635Z,22.59
2018-10-06T19:21:05.603Z,22.50
2018-10-06T19:23:31.533Z,22.48
2018-10-06T19:25:57.467Z,22.78
2018-10-06T19:28:23.460Z,22.92
2018-10-06T19:30:49.419Z,22.60
2018-10-06T19:33:15.376Z,22.64
2018-10-06T19:35:41.313Z,22.80
2018-10-06T19:38:07.266Z,22.82
2018-10-06T19:40:33.225Z,22.80
2018-10-06T19:42:59.182Z,22.66
2018-10-06T19:45:25.150Z,22.70
2018-10-06T19:47:51.110Z,22.76
2018-10-06T19:50:17.048Z,22.86
2018-10-06T19:52:43.005Z,22.77
2018-10-06T19:55:08.961Z,22.83
2018-10-06T19:57:34.926Z,22.69
2018-10-06T20:00:00.906Z,22.94
2018-10-06T20:02:26.868Z,23.01
2018-10-06T20:04:52.857Z,23.18
2018-10-06T20:07:18.850Z,23.16
2018-10-06T20:09:44.789Z,23.37
2018-10-06T20:12:10.775Z,23.40
2018-10-06T20:14:36.777Z,23.40
2018-10-06T20:17:02.769Z,23.15
2018-10-06T20:19:28.756Z,22.75
2018-10-06T20:21:54.860Z,22.91
2018-10-06T20:24:20.811Z,22.78
2018-10-06T20:26:46.827Z,22.52
2018-10-06T20:29:12.763Z,22.37
2018-10-06T20:31:38.724Z,22.53
2018-10-06T20:34:04.730Z,22.62
2018-10-06T20:36:30.749Z,22.54
2018-10-06T20:38:56.807Z,22.74
2018-10-06T20:41:22.773Z,22.61
2018-10-06T20:43:48.701Z,22.71
2018-10-06T20:46:14.876Z,22.54
2018-10-06T20:48:40.782Z,22.36
2018-10-06T20:51:06.727Z,22.36
2018-10-06T20:53:32.709Z,22.30
2018-10-06T20:55:58.676Z,22.29
2018-10-06T20:58:26.914Z,22.12
2018-10-06T21:00:53.038Z,22.36
2018-10-06T21:03:18.984Z,22.54
2018-10-06T21:05:44.940Z,22.56
2018-10-06T21:08:10.871Z,22.60
2018-10-06T21:10:36.825Z,22.73
2018-10-06T21:13:02.995Z,22.82
2018-10-06T21:15:28.960Z,22.82
2018-10-06T21:17:55.109Z,22.81
2018-10-06T21:20:21.061Z,22.81
2018-10-06T21:22:47.024Z,22.85
2018-10-06T21:25:13.011Z,22.78
2018-10-06T21:27:39.006Z,22.85
2018-10-06T21:30:04.951Z,22.90
2018-10-06T21:32:31.011Z,22.88
2018-10-06T21:34:56.962Z,22.93
2018-10-06T21:37:22.955Z,22.93
2018-10-06T21:39:48.903Z,23.10
2018-10-06T21:42:14.878Z,23.06
2018-10-06T21:44:40.816Z,22.88
2018-10-06T21:47:06.770Z,22.60
2018-10-06T21:49:32.705Z,22.90
2018-10-06T21:51:58.683Z,22.97
2018-10-06T21:54:24.640Z,22.97
2018-10-06T21:56:50.601Z,23.17
2018-10-06T21:59:16.567Z,22.99
2018-10-06T22:01:42.526Z,23.04
2018-10-06T22:04:08.476Z,22.82
2018-10-06T22:06:34.408Z,22.94
2018-10-06T22:09:00.375Z,22.69
2018-10-06T22:11:26.327Z,22.62
2018-10-06T22:13:52.320Z,22.68
2018-10-06T22:16:18.281Z,22.68
2018-10-06T22:18:44.226Z,22.39
2018-10-06T22:21:10.170Z,22.42
2018-10-06T22:23:36.130Z,22.72
2018-10-06T22:26:02.084Z,22.90
2018-10-06T22:28:28.061Z,23.04
2018-10-06T22:30:54.010Z,23.04
2018-10-06T22:33:19.943Z,22.71
2018-10-06T22:35:45.936Z,22.89
2018-10-06T22:38:11.917Z,23.05
2018-10-06T22:40:37.876Z,23.14
2018-10-06T22:43:03.831Z,23.17
2018-10-06T22:45:29.766Z,23.13
2018-10-06T22:47:55.735Z,23.25
2018-10-06T22:50:21.723Z,23.22
2018-10-06T22:52:47.660Z,22.88
2018-10-06T22:55:13.610Z,22.59
2018-10-06T22:57:39.534Z,22.92
2018-10-06T23:00:05.492Z,22.95
2018-10-06T23:02:31.459Z,22.98
2018-10-06T23:04:57.401Z,22.88
2018-10-06T23:07:23.351Z,22.55
2018-10-06T23:09:49.294Z,22.61
2018-10-06T23:12:15.263Z,22.73
2018-10-06T23:14:41.220Z,22.82
2018-10-06T23:17:07.203Z,22.84
2018-10-06T23:19:33.141Z,22.89
2018-10-06T23:21:59.088Z,22.94
2018-10-06T23:24:25.048Z,23.03
2018-10-06T23:26:50.994Z,23.14
2018-10-06T23:29:16.961Z,23.01
2018-10-06T23:31:42.889Z,22.55
2018-10-06T23:34:08.867Z,22.05
2018-10-06T23:36:34.825Z,22.04
2018-10-06T23:39:00.788Z,21.96
2018-10-06T23:41:27.348Z,22.43
2018-10-06T23:43:53.320Z,22.29
2018-10-06T23:46:19.244Z,22.16
2018-10-06T23:48:45.179Z,22.16
2018-10-06T23:51:11.132Z,22.20
2018-10-06T23:53:37.069Z,22.21
2018-10-06T23:56:03.070Z,22.36
2018-10-06T23:58:29.008Z,22.35
